createdAt,value
2019-03-04T00:00:17.021Z,-904.63
2019-03-04T00:01:17.358Z,-903.35
2019-03-04T00:02:17.639Z,-907.21
2019-03-04T00:03:17.894Z,-909.51
2019-03-04T00:04:18.195Z,-909.06
2019-03-04T00:05:18.460Z,-910.78
2019-03-04T00:06:18.701Z,-912.49
2019-03-04T00:07:18.994Z,-906.56
2019-03-04T00:08:19.289Z,-907.74
2019-03-04T00:09:19.608Z,-906.34
2019-03-04T00:10:19.964Z,-903.31
2019-03-04T00:11:20.104Z,-904.31
2019-03-04T00:12:20.391Z,-905.93
2019-03-04T00:13:20.687Z,-904.87
2019-03-04T00:14:21.253Z,-904.02
2019-03-04T00:15:21.239Z,-905.62
2019-03-04T00:16:21.473Z,-903.04
2019-03-04T00:17:21.752Z,-904.34
2019-03-04T00:18:22.208Z,-906.86
2019-03-04T00:19:22.333Z,-903.42
2019-03-04T00:20:22.624Z,-901.10
2019-03-04T00:21:22.853Z,-898.24
2019-03-04T00:22:23.156Z,-897.84
2019-03-04T00:23:23.464Z,-901.32
2019-03-04T00:24:23.752Z,-898.82
2019-03-04T00:25:24.016Z,-900.11
2019-03-04T00:26:24.309Z,-902.09
2019-03-04T00:27:24.519Z,-904.43
2019-03-04T00:28:24.835Z,-900.26
2019-03-04T00:29:25.129Z,-902.49
2019-03-04T00:30:25.388Z,-905.22
2019-03-04T00:31:25.641Z,-901.88
2019-03-04T00:32:25.926Z,-896.60
2019-03-04T00:33:26.206Z,-895.20
2019-03-04T00:34:26.583Z,-899.80
2019-03-04T00:35:26.762Z,-896.10
2019-03-04T00:36:27.025Z,-892.34
2019-03-04T00:37:27.306Z,-892.92
2019-03-04T00:38:27.596Z,-893.45
2019-03-04T00:39:27.856Z,-901.97
2019-03-04T00:40:28.157Z,-894.94
2019-03-04T00:41:28.414Z,-893.16
2019-03-04T00:42:28.708Z,-893.43
2019-03-04T00:43:29.071Z,-892.56
2019-03-04T00:44:29.259Z,-891.07
2019-03-04T00:45:29.538Z,-894.32
2019-03-04T00:46:29.791Z,-897.57
2019-03-04T00:47:30.075Z,-892.93
2019-03-04T00:48:30.377Z,-888.52
2019-03-04T00:49:30.658Z,-897.85
2019-03-04T00:50:30.908Z,-897.94
2019-03-04T00:51:31.276Z,-888.81
2019-03-04T00:52:31.443Z,-895.26
2019-03-04T00:53:31.739Z,-898.77
2019-03-04T00:54:32.000Z,-901.46
2019-03-04T00:55:32.282Z,-892.14
2019-03-04T00:56:32.563Z,-895.39
2019-03-04T00:57:32.840Z,-899.10
2019-03-04T00:58:33.134Z,-889.50
2019-03-04T00:59:33.473Z,-898.71
2019-03-04T01:00:33.654Z,-896.18
2019-03-04T01:01:33.933Z,-895.05
2019-03-04T01:02:34.210Z,-899.35
2019-03-04T01:03:34.504Z,-898.27
2019-03-04T01:04:34.761Z,-891.67
2019-03-04T01:05:35.049Z,-896.81
2019-03-04T01:06:35.322Z,-891.33
2019-03-04T01:07:35.687Z,-890.12
2019-03-04T01:08:35.885Z,-900.36
2019-03-04T01:09:36.154Z,-890.03
2019-03-04T01:10:36.438Z,-897.83
2019-03-04T01:11:36.717Z,-889.73
2019-03-04T01:12:36.976Z,-889.64
2019-03-04T01:13:37.279Z,-895.64
2019-03-04T01:14:37.558Z,-895.45
2019-03-04T01:15:37.880Z,-897.82
2019-03-04T01:16:38.168Z,-896.21
2019-03-04T01:17:38.373Z,-893.28
2019-03-04T01:18:38.681Z,-896.42
2019-03-04T01:19:38.967Z,-905.90
2019-03-04T01:20:39.246Z,-901.25
2019-03-04T01:21:39.525Z,-904.34
2019-03-04T01:22:39.791Z,-904.24
2019-03-04T01:23:40.135Z,-901.35
2019-03-04T01:24:40.440Z,-898.31
2019-03-04T01:25:40.634Z,-901.28
2019-03-04T01:26:40.920Z,-900.57
2019-03-04T01:27:41.166Z,-897.60
2019-03-04T01:28:41.461Z,-952.69
2019-03-04T01:29:41.697Z,-948.43
2019-03-04T01:30:42.003Z,-950.88
2019-03-04T01:31:43.577Z,-949.22
2019-03-04T01:32:42.636Z,-949.70
2019-03-04T01:33:42.836Z,-952.13
2019-03-04T01:34:43.081Z,-954.79
2019-03-04T01:35:43.384Z,-952.95
2019-03-04T01:36:43.668Z,-955.78
2019-03-04T01:37:43.927Z,-950.75
2019-03-04T01:38:44.220Z,-953.99
2019-03-04T01:39:44.479Z,-954.63
2019-03-04T01:40:45.049Z,-954.75
2019-03-04T01:41:45.024Z,-958.36
2019-03-04T01:42:45.283Z,-955.99
2019-03-04T01:43:45.580Z,-957.06
2019-03-04T01:44:45.835Z,-958.19
2019-03-04T01:45:46.134Z,-955.87
2019-03-04T01:46:46.387Z,-958.78
2019-03-04T01:47:46.660Z,-958.02
2019-03-04T01:48:47.025Z,-958.80
2019-03-04T01:49:47.209Z,-953.49
2019-03-04T01:50:47.521Z,-960.26
2019-03-04T01:51:47.806Z,-960.30
2019-03-04T01:52:48.039Z,-957.62
2019-03-04T01:53:48.337Z,-958.78
2019-03-04T01:54:48.605Z,-959.98
2019-03-04T01:55:48.897Z,-960.45
2019-03-04T01:56:49.210Z,-956.07
2019-03-04T01:57:49.485Z,-957.08
2019-03-04T01:58:49.729Z,-961.69
2019-03-04T01:59:49.984Z,-952.66
2019-03-04T02:00:50.261Z,-954.01
2019-03-04T02:01:50.561Z,-960.86
2019-03-04T02:02:50.811Z,-961.98
2019-03-04T02:03:51.090Z,-952.45
2019-03-04T02:04:51.367Z,-958.58
2019-03-04T02:05:51.750Z,-958.69
2019-03-04T02:06:51.965Z,-955.20
2019-03-04T02:07:52.185Z,-956.35
2019-03-04T02:08:52.503Z,-954.52
2019-03-04T02:09:52.769Z,-956.15
2019-03-04T02:10:53.069Z,-958.02
2019-03-04T02:11:53.349Z,-954.86
2019-03-04T02:12:53.608Z,-954.47
2019-03-04T02:13:53.930Z,-956.64
2019-03-04T02:14:54.141Z,-959.14
2019-03-04T02:15:54.434Z,-958.60
2019-03-04T02:16:54.722Z,-955.95
2019-03-04T02:17:54.978Z,-959.38
2019-03-04T02:18:55.248Z,-953.87
2019-03-04T02:19:55.508Z,-957.83
2019-03-04T02:20:55.806Z,-953.96
2019-03-04T02:21:56.181Z,-959.39
2019-03-04T02:22:56.349Z,-956.75
2019-03-04T02:23:56.632Z,-952.97
2019-03-04T02:24:56.913Z,-954.94
2019-03-04T02:25:57.184Z,-958.80
2019-03-04T02:26:57.516Z,-958.47
2019-03-04T02:27:57.758Z,-956.01
2019-03-04T02:28:58.036Z,-954.17
2019-03-04T02:29:58.359Z,-959.03
2019-03-04T02:30:58.621Z,-952.42
2019-03-04T02:31:58.901Z,-951.71
2019-03-04T02:32:59.143Z,-949.78
2019-03-04T02:33:59.414Z,-944.40
2019-03-04T02:34:59.702Z,-947.10
2019-03-04T02:35:59.970Z,-943.62
2019-03-04T02:37:00.262Z,-951.50
2019-03-04T02:38:00.535Z,-949.29
2019-03-04T02:39:00.940Z,-950.58
2019-03-04T02:40:01.114Z,-949.55
2019-03-04T02:41:01.352Z,-953.36
2019-03-04T02:42:01.663Z,-949.37
2019-03-04T02:43:01.916Z,-954.70
2019-03-04T02:44:02.194Z,-944.92
2019-03-04T02:45:02.485Z,-951.30
2019-03-04T02:46:02.755Z,-948.16
2019-03-04T02:47:03.116Z,-943.90
2019-03-04T02:48:03.287Z,-944.66
2019-03-04T02:49:03.564Z,-940.30
2019-03-04T02:50:03.861Z,-941.27
2019-03-04T02:51:04.127Z,-943.73
2019-03-04T02:52:04.423Z,-939.03
2019-03-04T02:53:04.653Z,-940.68
2019-03-04T02:54:04.953Z,-942.77
2019-03-04T02:55:05.282Z,-938.99
2019-03-04T02:56:05.486Z,-937.25
2019-03-04T02:57:05.798Z,-945.01
2019-03-04T02:58:06.023Z,-949.21
2019-03-04T02:59:06.302Z,-948.90
2019-03-04T03:00:06.608Z,-951.44
2019-03-04T03:01:06.871Z,-950.07
2019-03-04T03:02:07.183Z,-953.07
2019-03-04T03:03:07.442Z,-952.41
2019-03-04T03:04:07.668Z,-953.60
2019-03-04T03:05:07.991Z,-956.42
2019-03-04T03:06:08.251Z,-954.97
2019-03-04T03:07:08.580Z,-951.30
2019-03-04T03:08:08.805Z,-950.21
2019-03-04T03:09:09.081Z,-950.22
2019-03-04T03:10:09.605Z,-953.85
2019-03-04T03:11:09.653Z,-950.80
2019-03-04T03:12:10.000Z,-952.38
2019-03-04T03:13:10.185Z,-956.77
2019-03-04T03:14:10.457Z,-956.00
2019-03-04T03:15:10.741Z,-953.06
2019-03-04T03:16:11.038Z,-952.75
2019-03-04T03:17:11.323Z,-955.09
2019-03-04T03:18:11.596Z,-952.58
2019-03-04T03:19:11.856Z,-953.26
2019-03-04T03:20:12.286Z,-954.70
2019-03-04T03:21:12.403Z,-953.39
2019-03-04T03:22:12.708Z,-958.71
2019-03-04T03:23:13.004Z,-955.46
2019-03-04T03:24:13.262Z,-951.51
2019-03-04T03:25:13.554Z,-952.88
2019-03-04T03:26:13.790Z,-953.99
2019-03-04T03:27:14.079Z,-952.01
2019-03-04T03:28:14.452Z,-951.23
2019-03-04T03:29:14.634Z,-950.65
2019-03-04T03:30:14.938Z,-959.16
2019-03-04T03:31:15.197Z,-950.10
2019-03-04T03:32:15.460Z,-957.59
2019-03-04T03:33:15.774Z,-952.55
2019-03-04T03:34:16.030Z,-955.54
2019-03-04T03:35:16.319Z,-952.59
2019-03-04T03:36:16.685Z,-954.68
2019-03-04T03:37:16.818Z,-959.34
2019-03-04T03:38:17.123Z,-954.02
2019-03-04T03:39:17.388Z,-952.99
2019-03-04T03:40:17.711Z,-957.49
2019-03-04T03:41:17.942Z,-954.25
2019-03-04T03:42:18.967Z,-954.33
2019-03-04T03:43:18.538Z,-930.95
2019-03-04T03:44:18.820Z,-924.83
2019-03-04T03:45:19.117Z,-946.01
2019-03-04T03:46:19.328Z,-953.33
2019-03-04T03:47:19.609Z,-952.50
2019-03-04T03:48:19.905Z,-954.29
2019-03-04T03:49:20.139Z,-904.72
2019-03-04T03:50:20.453Z,-951.42
2019-03-04T03:51:20.706Z,-956.26
2019-03-04T03:52:20.990Z,-956.25
2019-03-04T03:53:21.423Z,-949.69
2019-03-04T03:54:21.516Z,-950.17
2019-03-04T03:55:21.832Z,-948.35
2019-03-04T03:56:22.081Z,-951.55
2019-03-04T03:57:22.353Z,-956.98
2019-03-04T03:58:24.834Z,-955.28
2019-03-04T03:59:22.921Z,-957.99
2019-03-04T04:00:23.198Z,-960.03
2019-03-04T04:01:23.564Z,-955.46
2019-03-04T04:02:23.750Z,-957.54
2019-03-04T04:03:24.058Z,-957.41
2019-03-04T04:04:24.306Z,-959.62
2019-03-04T04:05:24.586Z,-953.08
2019-03-04T04:06:24.843Z,-958.26
2019-03-04T04:07:25.135Z,-953.09
2019-03-04T04:08:25.437Z,-951.51
2019-03-04T04:09:25.723Z,-953.31
2019-03-04T04:10:25.959Z,-956.31
2019-03-04T04:11:26.209Z,-958.13
2019-03-04T04:12:26.502Z,-952.90
2019-03-04T04:13:26.817Z,-949.81
2019-03-04T04:14:29.129Z,-950.65
2019-03-04T04:15:27.355Z,-953.81
2019-03-04T04:16:27.610Z,-954.21
2019-03-04T04:17:27.950Z,-953.91
2019-03-04T04:18:28.228Z,-954.08
2019-03-04T04:19:28.473Z,-952.97
2019-03-04T04:20:28.766Z,-955.63
2019-03-04T04:21:29.021Z,-953.51
2019-03-04T04:22:29.303Z,-953.97
2019-03-04T04:23:29.602Z,-954.79
2019-03-04T04:24:29.858Z,-953.59
2019-03-04T04:25:30.141Z,-954.23
2019-03-04T04:26:30.538Z,-954.64
2019-03-04T04:27:30.675Z,-955.00
2019-03-04T04:28:30.993Z,-949.44
2019-03-04T04:29:31.259Z,-949.07
2019-03-04T04:30:31.585Z,-950.52
2019-03-04T04:31:31.827Z,-950.29
2019-03-04T04:32:32.103Z,-958.32
2019-03-04T04:33:32.404Z,-952.35
2019-03-04T04:34:32.765Z,-952.86
2019-03-04T04:35:32.941Z,-956.00
2019-03-04T04:36:33.241Z,-947.49
2019-03-04T04:37:33.516Z,-950.99
2019-03-04T04:38:33.802Z,-955.01
2019-03-04T04:39:34.047Z,-883.95
2019-03-04T04:40:34.339Z,-934.67
2019-03-04T04:41:34.633Z,-932.78
2019-03-04T04:42:34.923Z,-942.74
2019-03-04T04:43:35.186Z,-949.49
2019-03-04T04:44:35.420Z,-944.68
2019-03-04T04:45:35.711Z,-948.91
2019-03-04T04:46:36.006Z,-947.03
2019-03-04T04:47:36.266Z,-949.86
2019-03-04T04:48:36.577Z,-953.43
2019-03-04T04:49:37.045Z,-951.08
2019-03-04T04:50:37.133Z,-948.55
2019-03-04T04:51:37.367Z,-949.02
2019-03-04T04:52:37.649Z,-947.41
2019-03-04T04:53:37.923Z,-950.43
2019-03-04T04:54:38.188Z,-947.48
2019-03-04T04:55:38.465Z,-948.71
2019-03-04T04:56:38.739Z,-945.89
2019-03-04T04:57:39.037Z,-950.01
2019-03-04T04:58:39.345Z,-934.34
2019-03-04T04:59:39.650Z,-942.84
2019-03-04T05:00:39.865Z,-946.21
2019-03-04T05:01:40.135Z,-937.25
2019-03-04T05:02:40.427Z,-947.06
2019-03-04T05:03:40.737Z,-941.10
2019-03-04T05:04:41.014Z,-940.99
2019-03-04T05:05:41.332Z,-944.65
2019-03-04T05:06:41.563Z,-952.09
2019-03-04T05:07:41.909Z,-945.79
2019-03-04T05:08:42.122Z,-945.56
2019-03-04T05:09:42.365Z,-945.45
2019-03-04T05:10:42.639Z,-941.28
2019-03-04T05:11:42.934Z,-946.11
2019-03-04T05:12:43.178Z,-944.02
2019-03-04T05:13:43.531Z,-944.36
2019-03-04T05:14:43.756Z,-941.52
2019-03-04T05:15:44.077Z,-942.51
2019-03-04T05:16:44.307Z,-916.10
2019-03-04T05:17:44.548Z,-942.53
2019-03-04T05:18:44.861Z,-942.25
2019-03-04T05:19:45.122Z,-940.64
2019-03-04T05:20:45.405Z,-944.20
2019-03-04T05:21:45.697Z,-948.52
2019-03-04T05:22:45.952Z,-938.47
2019-03-04T05:23:46.309Z,-938.29
2019-03-04T05:24:46.470Z,-923.66
2019-03-04T05:25:46.772Z,-929.96
2019-03-04T05:26:47.065Z,-939.85
2019-03-04T05:27:47.325Z,-940.03
2019-03-04T05:28:47.628Z,-948.91
2019-03-04T05:29:47.869Z,-942.67
2019-03-04T05:30:48.136Z,-946.51
2019-03-04T05:31:48.486Z,-937.22
2019-03-04T05:32:48.738Z,-939.83
2019-03-04T05:33:48.991Z,-944.28
2019-03-04T05:34:49.257Z,-939.71
2019-03-04T05:35:49.517Z,-933.86
2019-03-04T05:36:49.827Z,-935.88
2019-03-04T05:37:50.099Z,-938.72
2019-03-04T05:38:50.412Z,-932.63
2019-03-04T05:39:50.698Z,-936.57
2019-03-04T05:40:51.049Z,-926.28
2019-03-04T05:41:51.241Z,-927.03
2019-03-04T05:42:51.558Z,-931.07
2019-03-04T05:43:51.793Z,-934.40
2019-03-04T05:44:52.079Z,-877.96
2019-03-04T05:45:52.331Z,-886.25
2019-03-04T05:46:52.602Z,-880.47
2019-03-04T05:47:52.863Z,-877.29
2019-03-04T05:48:53.278Z,-881.62
2019-03-04T05:49:53.454Z,-884.61
2019-03-04T05:50:53.706Z,-888.41
2019-03-04T05:51:53.994Z,-888.65
2019-03-04T05:52:54.270Z,-886.87
2019-03-04T05:53:54.558Z,-878.29
2019-03-04T05:54:54.837Z,-874.77
2019-03-04T05:55:55.083Z,-877.57
2019-03-04T05:56:55.429Z,-874.40
2019-03-04T05:57:55.616Z,-866.84
2019-03-04T05:58:55.926Z,-877.38
2019-03-04T05:59:56.212Z,-875.38
2019-03-04T06:00:56.459Z,-877.12
2019-03-04T06:01:56.764Z,-882.69
2019-03-04T06:02:57.019Z,-880.96
2019-03-04T06:03:57.292Z,-880.46
2019-03-04T06:04:57.632Z,-874.85
2019-03-04T06:05:57.824Z,-875.61
2019-03-04T06:06:58.127Z,-881.54
2019-03-04T06:07:58.380Z,-884.09
2019-03-04T06:08:58.660Z,-870.38
2019-03-04T06:09:58.955Z,-887.48
2019-03-04T06:10:59.229Z,-889.27
2019-03-04T06:11:59.523Z,-890.49
2019-03-04T06:12:59.825Z,-893.47
2019-03-04T06:14:00.143Z,-889.75
2019-03-04T06:15:00.353Z,-886.18
2019-03-04T06:16:00.609Z,-884.22
2019-03-04T06:17:00.903Z,-883.29
2019-03-04T06:18:01.162Z,-879.41
2019-03-04T06:19:01.448Z,-883.78
2019-03-04T06:20:01.718Z,-869.68
2019-03-04T06:21:01.974Z,-877.09
2019-03-04T06:22:02.395Z,-888.39
2019-03-04T06:23:02.544Z,-887.71
2019-03-04T06:24:02.853Z,-880.37
2019-03-04T06:25:03.100Z,-873.43
2019-03-04T06:26:03.365Z,-870.55
2019-03-04T06:27:03.685Z,-874.70
2019-03-04T06:28:04.166Z,-868.79
2019-03-04T06:29:04.225Z,-875.13
2019-03-04T06:30:04.584Z,-876.29
2019-03-04T06:31:04.734Z,-883.36
2019-03-04T06:32:05.047Z,-876.85
2019-03-04T06:33:05.311Z,-876.10
2019-03-04T06:34:05.601Z,-866.65
2019-03-04T06:35:05.869Z,-880.72
2019-03-04T06:36:06.137Z,-856.62
2019-03-04T06:37:06.405Z,-882.97
2019-03-04T06:38:06.780Z,-876.35
2019-03-04T06:39:06.965Z,-879.84
2019-03-04T06:40:07.259Z,-876.22
2019-03-04T06:41:07.513Z,-881.66
2019-03-04T06:42:07.785Z,-883.74
2019-03-04T06:43:08.067Z,-883.22
2019-03-04T06:44:08.386Z,-881.02
2019-03-04T06:45:08.674Z,-879.57
2019-03-04T06:46:09.000Z,-734.76
2019-03-04T06:47:09.244Z,-864.87
2019-03-04T06:48:09.476Z,-861.95
2019-03-04T06:49:09.799Z,-868.00
2019-03-04T06:50:10.084Z,-865.55
2019-03-04T06:51:10.343Z,-878.05
2019-03-04T06:52:10.619Z,-870.74
2019-03-04T06:53:10.916Z,-870.06
2019-03-04T06:54:11.217Z,-881.06
2019-03-04T06:55:11.580Z,-878.80
2019-03-04T06:56:11.740Z,-870.87
2019-03-04T06:57:12.015Z,-873.33
2019-03-04T06:58:12.303Z,-888.32
2019-03-04T06:59:12.577Z,-872.63
2019-03-04T07:00:12.848Z,-876.65
2019-03-04T07:01:13.135Z,-872.23
2019-03-04T07:02:13.409Z,-878.13
2019-03-04T07:03:13.848Z,-875.55
2019-03-04T07:04:13.945Z,-881.86
2019-03-04T07:05:14.238Z,-882.49
2019-03-04T07:06:14.494Z,-878.56
2019-03-04T07:07:14.770Z,-879.30
2019-03-04T07:08:15.094Z,-884.11
2019-03-04T07:09:15.324Z,-887.55
2019-03-04T07:10:15.603Z,-865.05
2019-03-04T07:11:15.916Z,-872.68
2019-03-04T07:12:16.132Z,-885.34
2019-03-04T07:13:16.453Z,-876.80
2019-03-04T07:14:16.691Z,-874.83
2019-03-04T07:15:16.985Z,-877.67
2019-03-04T07:16:17.227Z,-868.88
2019-03-04T07:17:17.522Z,-874.31
2019-03-04T07:18:17.844Z,-878.90
2019-03-04T07:19:18.138Z,-878.34
2019-03-04T07:20:18.357Z,-887.23
2019-03-04T07:21:18.628Z,-884.35
2019-03-04T07:22:18.895Z,-885.02
2019-03-04T07:23:19.208Z,-886.76
2019-03-04T07:24:19.459Z,-893.76
2019-03-04T07:25:19.755Z,-883.41
2019-03-04T07:26:20.015Z,-882.45
2019-03-04T07:27:20.308Z,-885.30
2019-03-04T07:28:20.695Z,-893.45
2019-03-04T07:29:20.831Z,-890.06
2019-03-04T07:30:21.148Z,-890.23
2019-03-04T07:31:21.395Z,-891.00
2019-03-04T07:32:21.663Z,-894.13
2019-03-04T07:33:21.945Z,-890.88
2019-03-04T07:34:22.217Z,-890.76
2019-03-04T07:35:22.521Z,-887.07
2019-03-04T07:36:22.897Z,-887.67
2019-03-04T07:37:23.027Z,-838.54
2019-03-04T07:38:23.338Z,-875.39
2019-03-04T07:39:23.633Z,-868.20
2019-03-04T07:40:23.892Z,-888.73
2019-03-04T07:41:24.157Z,-869.76
2019-03-04T07:42:24.457Z,-875.72
2019-03-04T07:43:24.726Z,-880.43
2019-03-04T07:44:25.036Z,-874.31
2019-03-04T07:45:25.257Z,-876.97
2019-03-04T07:46:25.534Z,-891.68
2019-03-04T07:47:25.818Z,-887.68
2019-03-04T07:48:26.113Z,-876.21
2019-03-04T07:49:26.362Z,-877.20
2019-03-04T07:50:26.643Z,-875.55
2019-03-04T07:51:26.940Z,-878.59
2019-03-04T07:52:27.285Z,-886.33
2019-03-04T07:53:27.493Z,-885.43
2019-03-04T07:54:27.756Z,-878.01
2019-03-04T07:55:28.026Z,-879.47
2019-03-04T07:56:28.320Z,-839.36
2019-03-04T07:57:28.602Z,-844.05
2019-03-04T07:58:28.904Z,-862.92
2019-03-04T07:59:29.151Z,-878.95
2019-03-04T08:00:29.474Z,-869.46
2019-03-04T08:01:29.757Z,-942.37
2019-03-04T08:02:29.984Z,-926.97
2019-03-04T08:03:30.277Z,-914.26
2019-03-04T08:04:30.518Z,-922.95
2019-03-04T08:05:30.836Z,-932.66
2019-03-04T08:06:31.336Z,-933.32
2019-03-04T08:07:31.347Z,-933.48
2019-03-04T08:08:31.665Z,-940.45
2019-03-04T08:09:32.036Z,-936.89
2019-03-04T08:10:32.203Z,-911.97
2019-03-04T08:11:32.473Z,-920.02
2019-03-04T08:12:32.809Z,-931.39
2019-03-04T08:13:33.051Z,-928.15
2019-03-04T08:14:33.312Z,-919.58
2019-03-04T08:15:33.594Z,-833.80
2019-03-04T08:16:36.013Z,-899.52
2019-03-04T08:17:34.265Z,-930.23
2019-03-04T08:18:34.422Z,-938.19
2019-03-04T08:19:34.685Z,-936.76
2019-03-04T08:20:34.973Z,-935.96
2019-03-04T08:21:35.252Z,-941.48
2019-03-04T08:22:35.518Z,-942.62
2019-03-04T08:23:35.786Z,-939.77
2019-03-04T08:24:36.063Z,-935.06
2019-03-04T08:25:36.467Z,-937.30
2019-03-04T08:26:36.619Z,-935.36
2019-03-04T08:27:36.883Z,-937.17
2019-03-04T08:28:37.159Z,-929.15
2019-03-04T08:29:37.418Z,-937.38
2019-03-04T08:30:37.728Z,-937.43
2019-03-04T08:31:38.006Z,-930.02
2019-03-04T08:32:38.269Z,-926.38
2019-03-04T08:33:38.622Z,-920.95
2019-03-04T08:34:38.785Z,-912.55
2019-03-04T08:35:39.103Z,-920.08
2019-03-04T08:36:39.430Z,-898.90
2019-03-04T08:37:39.645Z,-918.19
2019-03-04T08:38:39.936Z,-917.73
2019-03-04T08:39:40.194Z,-945.20
2019-03-04T08:40:40.466Z,-937.96
2019-03-04T08:41:40.782Z,-938.84
2019-03-04T08:42:41.142Z,-933.16
2019-03-04T08:43:41.336Z,-938.38
2019-03-04T08:44:41.590Z,-947.25
2019-03-04T08:45:41.869Z,-936.62
2019-03-04T08:46:42.160Z,-933.44
2019-03-04T08:47:42.432Z,-936.86
2019-03-04T08:48:42.694Z,-939.95
2019-03-04T08:49:43.059Z,-934.67
2019-03-04T08:50:43.374Z,-928.26
2019-03-04T08:51:43.538Z,-932.58
2019-03-04T08:52:43.813Z,-926.16
2019-03-04T08:53:44.097Z,-925.73
2019-03-04T08:54:44.392Z,-929.11
2019-03-04T08:55:45.321Z,-939.68
2019-03-04T08:56:44.950Z,-919.16
2019-03-04T08:57:45.196Z,-922.83
2019-03-04T08:58:45.548Z,-925.01
2019-03-04T08:59:45.765Z,-948.26
2019-03-04T09:00:46.069Z,-892.86
2019-03-04T09:01:46.333Z,-933.11
2019-03-04T09:02:46.569Z,-937.07
2019-03-04T09:03:46.873Z,-934.84
2019-03-04T09:04:47.151Z,-935.24
2019-03-04T09:05:47.447Z,-939.27
2019-03-04T09:06:47.779Z,-944.97
2019-03-04T09:07:47.939Z,-938.80
2019-03-04T09:08:48.237Z,-935.94
2019-03-04T09:09:48.540Z,-936.27
2019-03-04T09:10:48.822Z,-932.19
2019-03-04T09:11:49.105Z,-938.33
2019-03-04T09:12:49.385Z,-935.93
2019-03-04T09:13:49.615Z,-937.40
2019-03-04T09:14:49.946Z,-929.34
2019-03-04T09:15:50.236Z,-921.61
2019-03-04T09:16:50.484Z,-931.45
2019-03-04T09:17:50.761Z,-932.12
2019-03-04T09:18:51.006Z,-929.51
2019-03-04T09:19:51.302Z,-939.36
2019-03-04T09:20:51.573Z,-935.80
2019-03-04T09:21:51.867Z,-944.11
2019-03-04T09:22:52.147Z,-917.41
2019-03-04T09:23:52.541Z,-933.14
2019-03-04T09:24:52.734Z,-948.32
2019-03-04T09:25:53.006Z,-946.53
2019-03-04T09:26:53.317Z,-933.32
2019-03-04T09:27:53.579Z,-929.00
2019-03-04T09:28:53.829Z,-932.59
2019-03-04T09:29:54.122Z,-945.25
2019-03-04T09:30:54.370Z,-946.66
2019-03-04T09:31:54.821Z,-934.68
2019-03-04T09:32:54.941Z,-944.06
2019-03-04T09:33:55.243Z,-945.19
2019-03-04T09:34:55.516Z,-942.02
2019-03-04T09:35:55.740Z,-912.16
2019-03-04T09:36:56.064Z,-924.46
2019-03-04T09:37:56.306Z,-931.20
2019-03-04T09:38:56.590Z,-935.76
2019-03-04T09:39:56.954Z,-940.70
2019-03-04T09:40:57.108Z,-937.86
2019-03-04T09:41:57.444Z,-931.45
2019-03-04T09:42:57.944Z,-936.76
2019-03-04T09:43:57.976Z,-929.73
2019-03-04T09:44:58.269Z,-930.38
2019-03-04T09:45:58.532Z,-935.50
2019-03-04T09:46:58.830Z,-949.31
2019-03-04T09:47:59.098Z,-941.97
2019-03-04T09:48:59.335Z,-929.66
2019-03-04T09:49:59.633Z,-887.11
2019-03-04T09:50:59.906Z,-942.86
2019-03-04T09:52:00.187Z,-945.24
2019-03-04T09:53:00.435Z,-939.73
2019-03-04T09:54:00.727Z,-927.33
2019-03-04T09:55:01.025Z,-941.71
2019-03-04T09:56:01.317Z,-934.60
2019-03-04T09:57:01.720Z,-933.89
2019-03-04T09:58:01.835Z,-909.58
2019-03-04T09:59:02.113Z,-914.59
2019-03-04T10:00:02.423Z,-924.25
2019-03-04T10:01:02.676Z,-927.29
2019-03-04T10:02:02.976Z,-915.93
2019-03-04T10:03:03.249Z,-926.00
2019-03-04T10:04:03.536Z,-921.07
2019-03-04T10:05:04.137Z,-924.59
2019-03-04T10:06:04.058Z,-918.27
2019-03-04T10:07:04.342Z,-917.02
2019-03-04T10:08:04.631Z,-934.26
2019-03-04T10:09:04.889Z,-926.97
2019-03-04T10:10:05.209Z,-935.69
2019-03-04T10:11:05.484Z,-935.87
2019-03-04T10:12:05.777Z,-929.26
2019-03-04T10:13:06.099Z,-934.28
2019-03-04T10:14:06.311Z,-928.61
2019-03-04T10:15:08.743Z,-922.00
2019-03-04T10:16:06.870Z,-923.67
2019-03-04T10:17:07.153Z,-924.31
2019-03-04T10:18:07.433Z,-899.66
2019-03-04T10:19:07.712Z,-928.78
2019-03-04T10:20:07.992Z,-928.68
2019-03-04T10:21:08.289Z,-943.05
2019-03-04T10:22:08.492Z,-943.12
2019-03-04T10:23:08.799Z,-939.78
2019-03-04T10:24:09.066Z,-937.89
2019-03-04T10:25:10.339Z,-930.52
2019-03-04T10:26:09.607Z,-935.58
2019-03-04T10:27:09.877Z,-937.62
2019-03-04T10:28:10.188Z,-935.69
2019-03-04T10:29:10.485Z,-938.96
2019-03-04T10:30:10.804Z,-948.21
2019-03-04T10:31:10.991Z,-942.26
2019-03-04T10:32:11.253Z,-933.76
2019-03-04T10:33:11.999Z,-938.69
2019-03-04T10:34:11.895Z,-945.95
2019-03-04T10:35:12.113Z,-942.38
2019-03-04T10:36:12.395Z,-941.38
2019-03-04T10:37:12.654Z,-927.91
2019-03-04T10:38:22.011Z,-936.64
2019-03-04T10:39:14.200Z,-940.00
2019-03-04T10:40:15.551Z,-946.65
2019-03-04T10:41:13.751Z,-955.65
2019-03-04T10:42:14.019Z,-956.78
2019-03-04T10:43:14.348Z,-942.67
2019-03-04T10:44:15.499Z,-945.51
2019-03-04T10:45:14.864Z,-947.37
2019-03-04T10:46:15.233Z,-945.55
2019-03-04T10:47:15.378Z,-940.90
2019-03-04T10:48:15.692Z,-937.98
2019-03-04T10:49:16.003Z,-941.64
2019-03-04T10:50:16.240Z,-946.29
2019-03-04T10:51:18.652Z,-949.83
2019-03-04T10:52:16.825Z,-958.14
2019-03-04T10:53:17.069Z,-947.43
2019-03-04T10:54:17.363Z,-953.81
2019-03-04T10:55:17.602Z,-925.88
2019-03-04T10:56:17.860Z,-951.05
2019-03-04T10:57:18.144Z,-968.11
2019-03-04T10:58:18.435Z,-958.43
2019-03-04T10:59:18.687Z,-960.73
2019-03-04T11:00:18.971Z,-959.16
2019-03-04T11:01:19.237Z,-959.07
2019-03-04T11:02:19.543Z,-950.44
2019-03-04T11:03:19.806Z,-956.80
2019-03-04T11:04:20.090Z,-954.53
2019-03-04T11:05:20.342Z,-968.21
2019-03-04T11:06:20.631Z,-964.95
2019-03-04T11:07:20.922Z,-971.77
2019-03-04T11:08:21.217Z,-954.13
2019-03-04T11:09:21.490Z,-971.07
2019-03-04T11:10:21.771Z,-961.98
2019-03-04T11:11:29.554Z,-969.56
2019-03-04T11:12:23.311Z,-949.74
2019-03-04T11:13:22.611Z,-970.26
2019-03-04T11:14:22.883Z,-962.94
2019-03-04T11:15:23.143Z,-974.11
2019-03-04T11:16:23.419Z,-963.19
2019-03-04T11:17:23.711Z,-955.59
2019-03-04T11:18:24.005Z,-915.89
2019-03-04T11:19:24.365Z,-941.76
2019-03-04T11:20:24.513Z,-960.99
2019-03-04T11:21:25.046Z,-910.93
2019-03-04T11:22:25.091Z,-913.41
2019-03-04T11:23:25.383Z,-907.78
2019-03-04T11:24:25.660Z,-907.92
2019-03-04T11:25:25.919Z,-903.89
2019-03-04T11:26:26.203Z,-901.48
2019-03-04T11:27:26.522Z,-899.62
2019-03-04T11:28:26.755Z,-899.74
2019-03-04T11:29:27.040Z,-900.68
2019-03-04T11:30:27.277Z,-891.85
2019-03-04T11:31:27.578Z,-905.79
2019-03-04T11:32:27.820Z,-862.44
2019-03-04T11:33:28.116Z,-848.23
2019-03-04T11:34:28.398Z,-857.41
2019-03-04T11:35:28.719Z,-894.22
2019-03-04T11:36:28.939Z,-896.00
2019-03-04T11:37:29.205Z,-890.36
2019-03-04T11:38:29.476Z,-885.39
2019-03-04T11:39:29.742Z,-895.46
2019-03-04T11:40:30.031Z,-880.00
2019-03-04T11:41:30.329Z,-881.14
2019-03-04T11:42:30.584Z,-873.90
2019-03-04T11:43:30.920Z,-869.07
2019-03-04T11:44:31.185Z,-874.67
2019-03-04T11:45:31.419Z,-872.71
2019-03-04T11:46:31.714Z,-863.36
2019-03-04T11:47:31.960Z,-857.30
2019-03-04T11:48:32.256Z,-864.37
2019-03-04T11:49:32.515Z,-858.56
2019-03-04T11:50:32.801Z,-865.28
2019-03-04T11:51:33.091Z,-859.78
2019-03-04T11:52:33.436Z,-858.82
2019-03-04T11:53:33.633Z,-843.80
2019-03-04T11:54:33.873Z,-854.59
2019-03-04T11:55:34.180Z,-861.47
2019-03-04T11:56:34.468Z,-862.72
2019-03-04T11:57:34.710Z,-863.39
2019-03-04T11:58:35.008Z,-855.54
2019-03-04T11:59:35.272Z,-857.77
2019-03-04T12:00:35.635Z,-840.08
2019-03-04T12:01:35.825Z,-858.98
2019-03-04T12:02:38.809Z,-861.10
2019-03-04T12:03:36.379Z,-863.24
2019-03-04T12:04:36.645Z,-859.54
2019-03-04T12:05:36.893Z,-857.45
2019-03-04T12:06:37.206Z,-855.22
2019-03-04T12:07:37.482Z,-854.42
2019-03-04T12:08:37.813Z,-860.76